Weather at Sparti Airport

Public forecast

Using degrees Celsius for public forecast. Weather courtesy of forecast.io.

Closest aviation weather report (METAR) to Sparti Airport

Closest report is Kalamata Airport, 24.7 nm (45.7 km) WNW. Retrieved 2021/04/12 22:20 UTC (9 minutes ago):

LGKL 122220Z AUTO VRB03KT //// // ////// 08/05 Q1021 RE//

Closest aviation forecast (TAF) to Sparti Airport

Forecast is more than 12 hours old.

Closest forecast is Kalamata Airport, 24.7 nm (45.7 km) WNW. Retrieved 2020/03/18 09:39 UTC (1 year ago):

TAF LGKL 180800Z 1809/1821 16008KT 9999 FEW030 TEMPO 1817/1818 SCT020 BKN080